This is the latest recevied weather packets stored in our database for station/object S54L-12. If no packets are shown the sender has not sent any weather packets the latest 10 day(s).
| Time | Temp. | Humidity | Pressure | Rain* | Wind** | Luminosity | Snow |
|---|---|---|---|---|---|---|---|
| 1777871736 | 9.44° C | 54% | 923.3 hPa | - | - | - | - |
| 1777870836 | 7.78° C | 62% | 923.1 hPa | - | - | - | - |
| 1777869936 | 6.67° C | 71% | 923 hPa | - | - | - | - |
| 1777869036 | 6.11° C | 71% | 923.1 hPa | - | - | - | - |
| 1777868136 | 5.56° C | 72% | 923 hPa | - | - | - | - |
| 1777867236 | 5.56° C | 72% | 923 hPa | - | - | - | - |
| 1777866336 | 5.56° C | 71% | 922.9 hPa | - | - | - | - |
| 1777865436 | 5.56° C | 72% | 923 hPa | - | - | - | - |
| 1777864535 | 5.56° C | 70% | 922.9 hPa | - | - | - | - |
| 1777863635 | 5.56° C | 69% | 923 hPa | - | - | - | - |
| 1777862735 | 5.56° C | 69% | 923.1 hPa | - | - | - | - |
| 1777861835 | 5° C | 69% | 923.2 hPa | - | - | - | - |
| 1777860935 | 5° C | 68% | 923.2 hPa | - | - | - | - |
| 1777860037 | 5° C | 68% | 923.3 hPa | - | - | - | - |
| 1777859137 | 5° C | 67% | 923.4 hPa | - | - | - | - |
| 1777858237 | 5.56° C | 65% | 923.3 hPa | - | - | - | - |
| 1777857337 | 5° C | 66% | 923.3 hPa | - | - | - | - |
| 1777856436 | 5° C | 66% | 923.3 hPa | - | - | - | - |
| 1777855536 | 5° C | 66% | 923.3 hPa | - | - | - | - |
| 1777854636 | 4.44° C | 65% | 923.3 hPa | - | - | - | - |
| 1777853736 | 5° C | 66% | 923.4 hPa | - | - | - | - |
| 1777852836 | 4.44° C | 65% | 923.5 hPa | - | - | - | - |
| 1777851936 | 4.44° C | 66% | 923.5 hPa | - | - | - | - |
| 1777851036 | 4.44° C | 66% | 923.6 hPa | - | - | - | - |
| 1777850136 | 4.44° C | 68% | 923.6 hPa | - | - | - | - |
* Rain since midnight (hover to see other rain measurements)
** Current wind speed in m/s (hover to see current wind gust speed)